Skiros, Greece
Current Conditions -  °F | °C
As of 11:50 PM on Thursday 20 Nov 2014 (Local Time) from LGSY Reporting Station
Scattered Clouds Scattered Clouds  
Wind Chill: 59°   Ceiling: Unl
Heat Index: 59°   Visibility: 6mi
Dew Point: 39°   Wind: 18mph
Humidity: 48%   Direction: 290°WNW
Pressure: 30"   Gusts: NA
Location:  38.9°N, 24.56°E
Report Text: LGSY 202050Z 29016KT 9999 SCT025 15/04 Q1016 NOSIG BLU
Loading
Personal Weather Stations






























Interactive Weather Map New forecast layout! Learn more

10-Day Weather Forecast

Advertisements
Track Severe Weather on mobile